sensor_id;sensor_type;location;lat;lon;timestamp;pressure;altitude;pressure_sealevel;temperature;humidity
61769;BME280;47669;48.712;9.016;2023-02-02T00:00:12;97143.13;;;3.23;nan
61769;BME280;47669;48.712;9.016;2023-02-02T00:02:37;97145.25;;;3.28;nan
61769;BME280;47669;48.712;9.016;2023-02-02T00:05:02;97147.19;;;3.26;nan
61769;BME280;47669;48.712;9.016;2023-02-02T00:07:28;97146.72;;;3.30;nan
61769;BME280;47669;48.712;9.016;2023-02-02T00:09:53;97122.34;;;3.31;nan
61769;BME280;47669;48.712;9.016;2023-02-02T00:12:18;97126.72;;;3.31;nan
61769;BME280;47669;48.712;9.016;2023-02-02T00:14:43;97128.03;;;3.35;nan
61769;BME280;47669;48.712;9.016;2023-02-02T00:17:09;97119.59;;;3.41;nan
61769;BME280;47669;48.712;9.016;2023-02-02T00:19:35;97117.50;;;3.45;nan
61769;BME280;47669;48.712;9.016;2023-02-02T00:22:00;97120.91;;;3.45;nan
61769;BME280;47669;48.712;9.016;2023-02-02T00:24:26;97130.50;;;3.53;nan
61769;BME280;47669;48.712;9.016;2023-02-02T00:26:54;97130.38;;;3.54;nan
61769;BME280;47669;48.712;9.016;2023-02-02T00:29:22;97138.31;;;3.53;nan
61769;BME280;47669;48.712;9.016;2023-02-02T00:31:49;97143.38;;;3.54;nan
61769;BME280;47669;48.712;9.016;2023-02-02T00:34:15;97148.41;;;3.56;nan
61769;BME280;47669;48.712;9.016;2023-02-02T00:36:42;97149.41;;;3.55;nan
61769;BME280;47669;48.712;9.016;2023-02-02T00:39:08;97141.59;;;3.55;nan
61769;BME280;47669;48.712;9.016;2023-02-02T00:41:34;97141.44;;;3.57;nan
61769;BME280;47669;48.712;9.016;2023-02-02T00:43:59;97144.69;;;3.59;nan
61769;BME280;47669;48.712;9.016;2023-02-02T00:46:43;97141.44;;;3.57;nan
61769;BME280;47669;48.712;9.016;2023-02-02T00:49:09;97145.66;;;3.58;nan
61769;BME280;47669;48.712;9.016;2023-02-02T00:51:35;97149.25;;;3.57;nan
61769;BME280;47669;48.712;9.016;2023-02-02T00:54:01;97139.13;;;3.53;nan
61769;BME280;47669;48.712;9.016;2023-02-02T00:56:27;97140.78;;;3.54;nan
61769;BME280;47669;48.712;9.016;2023-02-02T00:58:52;97142.53;;;3.54;nan
61769;BME280;47669;48.712;9.016;2023-02-02T01:01:18;97151.69;;;3.58;nan
61769;BME280;47669;48.712;9.016;2023-02-02T01:03:46;97145.81;;;3.56;nan
61769;BME280;47669;48.712;9.016;2023-02-02T01:06:11;97141.88;;;3.52;nan
61769;BME280;47669;48.712;9.016;2023-02-02T01:08:37;97139.78;;;3.55;nan
61769;BME280;47669;48.712;9.016;2023-02-02T01:11:02;97138.69;;;3.58;nan
61769;BME280;47669;48.712;9.016;2023-02-02T01:13:28;97141.59;;;3.63;nan
61769;BME280;47669;48.712;9.016;2023-02-02T01:15:57;97141.94;;;3.60;nan
61769;BME280;47669;48.712;9.016;2023-02-02T01:18:23;97154.31;;;3.58;nan
61769;BME280;47669;48.712;9.016;2023-02-02T01:21:09;97147.75;;;3.54;nan
61769;BME280;47669;48.712;9.016;2023-02-02T01:23:36;97158.31;;;3.44;nan
61769;BME280;47669;48.712;9.016;2023-02-02T01:26:05;97154.75;;;3.45;nan
61769;BME280;47669;48.712;9.016;2023-02-02T01:28:30;97166.09;;;3.36;nan
61769;BME280;47669;48.712;9.016;2023-02-02T01:30:56;97175.53;;;3.29;nan
61769;BME280;47669;48.712;9.016;2023-02-02T01:33:22;97173.06;;;3.27;nan
61769;BME280;47669;48.712;9.016;2023-02-02T01:35:52;97179.09;;;3.28;nan
61769;BME280;47669;48.712;9.016;2023-02-02T01:38:19;97180.88;;;3.27;nan
61769;BME280;47669;48.712;9.016;2023-02-02T01:40:50;97168.81;;;3.18;nan
61769;BME280;47669;48.712;9.016;2023-02-02T01:46:09;97157.75;;;3.24;nan
61769;BME280;47669;48.712;9.016;2023-02-02T01:48:35;97170.47;;;3.27;nan
61769;BME280;47669;48.712;9.016;2023-02-02T01:51:04;97168.19;;;3.32;nan
61769;BME280;47669;48.712;9.016;2023-02-02T01:53:31;97163.00;;;3.32;nan
61769;BME280;47669;48.712;9.016;2023-02-02T01:55:57;97156.97;;;3.32;nan
61769;BME280;47669;48.712;9.016;2023-02-02T01:58:27;97157.78;;;3.32;nan
61769;BME280;47669;48.712;9.016;2023-02-02T02:00:53;97156.34;;;3.38;nan
61769;BME280;47669;48.712;9.016;2023-02-02T02:03:24;97156.03;;;3.41;nan
61769;BME280;47669;48.712;9.016;2023-02-02T02:05:51;97157.50;;;3.44;nan
61769;BME280;47669;48.712;9.016;2023-02-02T02:08:20;97159.81;;;3.47;nan
61769;BME280;47669;48.712;9.016;2023-02-02T02:10:46;97147.25;;;3.42;nan
61769;BME280;47669;48.712;9.016;2023-02-02T02:13:12;97150.03;;;3.41;nan
61769;BME280;47669;48.712;9.016;2023-02-02T02:15:47;97160.59;;;3.39;nan
61769;BME280;47669;48.712;9.016;2023-02-02T02:18:44;97159.59;;;3.40;nan
61769;BME280;47669;48.712;9.016;2023-02-02T02:30:55;97159.16;;;3.45;nan
61769;BME280;47669;48.712;9.016;2023-02-02T02:33:32;97156.69;;;3.43;nan
61769;BME280;47669;48.712;9.016;2023-02-02T02:36:18;97162.72;;;3.44;nan
61769;BME280;47669;48.712;9.016;2023-02-02T02:41:27;97163.38;;;3.46;nan
61769;BME280;47669;48.712;9.016;2023-02-02T02:43:58;97158.00;;;3.47;nan
61769;BME280;47669;48.712;9.016;2023-02-02T02:46:25;97157.84;;;3.49;nan
61769;BME280;47669;48.712;9.016;2023-02-02T02:48:50;97157.50;;;3.52;nan
61769;BME280;47669;48.712;9.016;2023-02-02T02:51:48;97160.75;;;3.46;nan
61769;BME280;47669;48.712;9.016;2023-02-02T02:54:26;97159.47;;;3.50;nan
61769;BME280;47669;48.712;9.016;2023-02-02T02:57:09;97165.66;;;3.49;nan
61769;BME280;47669;48.712;9.016;2023-02-02T02:59:50;97166.47;;;3.49;nan
61769;BME280;47669;48.712;9.016;2023-02-02T03:04:58;97165.00;;;3.47;nan
61769;BME280;47669;48.712;9.016;2023-02-02T03:07:34;97162.25;;;3.48;nan
61769;BME280;47669;48.712;9.016;2023-02-02T03:10:04;97160.44;;;3.49;nan
61769;BME280;47669;48.712;9.016;2023-02-02T03:12:30;97166.13;;;3.44;nan
61769;BME280;47669;48.712;9.016;2023-02-02T03:14:55;97159.28;;;3.43;nan
61769;BME280;47669;48.712;9.016;2023-02-02T03:17:20;97157.84;;;3.41;nan
61769;BME280;47669;48.712;9.016;2023-02-02T03:19:46;97151.63;;;3.42;nan
61769;BME280;47669;48.712;9.016;2023-02-02T03:22:11;97152.63;;;3.41;nan
61769;BME280;47669;48.712;9.016;2023-02-02T03:24:36;97160.25;;;3.42;nan
61769;BME280;47669;48.712;9.016;2023-02-02T03:27:01;97167.75;;;3.45;nan
61769;BME280;47669;48.712;9.016;2023-02-02T03:29:28;97156.69;;;3.43;nan
61769;BME280;47669;48.712;9.016;2023-02-02T03:31:53;97170.50;;;3.44;nan
61769;BME280;47669;48.712;9.016;2023-02-02T03:34:18;97177.53;;;3.43;nan
61769;BME280;47669;48.712;9.016;2023-02-02T03:36:44;97158.94;;;3.38;nan
61769;BME280;47669;48.712;9.016;2023-02-02T03:39:09;97175.88;;;3.42;nan
61769;BME280;47669;48.712;9.016;2023-02-02T03:41:34;97170.34;;;3.37;nan
61769;BME280;47669;48.712;9.016;2023-02-02T03:43:59;97173.91;;;3.36;nan
61769;BME280;47669;48.712;9.016;2023-02-02T03:46:25;97177.53;;;3.43;nan
61769;BME280;47669;48.712;9.016;2023-02-02T03:48:50;97171.31;;;3.36;nan
61769;BME280;47669;48.712;9.016;2023-02-02T03:51:15;97167.25;;;3.42;nan
61769;BME280;47669;48.712;9.016;2023-02-02T03:53:41;97169.19;;;3.40;nan
61769;BME280;47669;48.712;9.016;2023-02-02T03:56:11;97168.91;;;3.43;nan
61769;BME280;47669;48.712;9.016;2023-02-02T03:58:36;97161.25;;;3.41;nan
61769;BME280;47669;48.712;9.016;2023-02-02T04:01:04;97158.97;;;3.46;nan
61769;BME280;47669;48.712;9.016;2023-02-02T04:03:31;97172.31;;;3.51;nan
61769;BME280;47669;48.712;9.016;2023-02-02T04:05:57;97170.72;;;3.50;nan
61769;BME280;47669;48.712;9.016;2023-02-02T04:08:22;97175.09;;;3.50;nan
61769;BME280;47669;48.712;9.016;2023-02-02T04:10:47;97173.47;;;3.49;nan
61769;BME280;47669;48.712;9.016;2023-02-02T04:13:13;97168.25;;;3.49;nan
61769;BME280;47669;48.712;9.016;2023-02-02T04:15:38;97166.81;;;3.54;nan
61769;BME280;47669;48.712;9.016;2023-02-02T04:18:04;97181.00;;;3.60;nan
61769;BME280;47669;48.712;9.016;2023-02-02T04:20:29;97177.41;;;3.61;nan
61769;BME280;47669;48.712;9.016;2023-02-02T04:22:54;97177.88;;;3.57;nan
61769;BME280;47669;48.712;9.016;2023-02-02T04:25:19;97182.25;;;3.56;nan
61769;BME280;47669;48.712;9.016;2023-02-02T04:27:45;97183.91;;;3.57;nan
61769;BME280;47669;48.712;9.016;2023-02-02T04:30:10;97189.25;;;3.55;nan
61769;BME280;47669;48.712;9.016;2023-02-02T04:32:36;97186.81;;;3.54;nan
61769;BME280;47669;48.712;9.016;2023-02-02T04:35:01;97196.41;;;3.53;nan
61769;BME280;47669;48.712;9.016;2023-02-02T04:37:29;97201.47;;;3.55;nan
61769;BME280;47669;48.712;9.016;2023-02-02T04:39:55;97211.22;;;3.53;nan
61769;BME280;47669;48.712;9.016;2023-02-02T04:42:20;97212.03;;;3.53;nan
61769;BME280;47669;48.712;9.016;2023-02-02T04:44:45;97217.41;;;3.52;nan
61769;BME280;47669;48.712;9.016;2023-02-02T04:47:11;97219.53;;;3.48;nan
61769;BME280;47669;48.712;9.016;2023-02-02T04:49:36;97216.94;;;3.48;nan
61769;BME280;47669;48.712;9.016;2023-02-02T04:52:02;97215.44;;;3.54;nan
61769;BME280;47669;48.712;9.016;2023-02-02T04:54:27;97213.84;;;3.53;nan
61769;BME280;47669;48.712;9.016;2023-02-02T04:56:52;97216.75;;;3.50;nan
61769;BME280;47669;48.712;9.016;2023-02-02T04:59:18;97220.84;;;3.52;nan
61769;BME280;47669;48.712;9.016;2023-02-02T05:01:43;97226.19;;;3.51;nan
61769;BME280;47669;48.712;9.016;2023-02-02T05:04:10;97230.13;;;3.55;nan
61769;BME280;47669;48.712;9.016;2023-02-02T05:06:35;97220.66;;;3.54;nan
61769;BME280;47669;48.712;9.016;2023-02-02T05:09:00;97234.03;;;3.59;nan
61769;BME280;47669;48.712;9.016;2023-02-02T05:11:26;97224.13;;;3.63;nan
61769;BME280;47669;48.712;9.016;2023-02-02T05:13:52;97227.38;;;3.57;nan
61769;BME280;47669;48.712;9.016;2023-02-02T05:16:19;97230.94;;;3.55;nan
61769;BME280;47669;48.712;9.016;2023-02-02T05:18:52;97239.53;;;3.56;nan
61769;BME280;47669;48.712;9.016;2023-02-02T05:21:19;97237.44;;;3.60;nan
61769;BME280;47669;48.712;9.016;2023-02-02T05:23:45;97242.84;;;3.58;nan
61769;BME280;47669;48.712;9.016;2023-02-02T05:26:15;97247.19;;;3.58;nan
61769;BME280;47669;48.712;9.016;2023-02-02T05:28:41;97245.25;;;3.60;nan
61769;BME280;47669;48.712;9.016;2023-02-02T05:31:07;97254.72;;;3.61;nan
61769;BME280;47669;48.712;9.016;2023-02-02T05:33:33;97250.47;;;3.60;nan
61769;BME280;47669;48.712;9.016;2023-02-02T05:35:58;97253.41;;;3.57;nan
61769;BME280;47669;48.712;9.016;2023-02-02T05:38:23;97257.78;;;3.56;nan
61769;BME280;47669;48.712;9.016;2023-02-02T05:40:49;97258.78;;;3.63;nan
61769;BME280;47669;48.712;9.016;2023-02-02T05:43:14;97247.38;;;4.07;nan
61769;BME280;47669;48.712;9.016;2023-02-02T05:45:39;97260.09;;;3.67;nan
61769;BME280;47669;48.712;9.016;2023-02-02T05:48:05;97263.69;;;3.66;nan
61769;BME280;47669;48.712;9.016;2023-02-02T05:50:30;97268.91;;;3.66;nan
61769;BME280;47669;48.712;9.016;2023-02-02T05:52:56;97272.16;;;3.68;nan
61769;BME280;47669;48.712;9.016;2023-02-02T05:55:22;97266.28;;;3.66;nan
61769;BME280;47669;48.712;9.016;2023-02-02T05:57:48;97268.06;;;3.66;nan
61769;BME280;47669;48.712;9.016;2023-02-02T06:00:13;97271.50;;;3.66;nan
61769;BME280;47669;48.712;9.016;2023-02-02T06:02:38;97267.75;;;3.69;nan
61769;BME280;47669;48.712;9.016;2023-02-02T06:05:04;97268.06;;;3.66;nan
61769;BME280;47669;48.712;9.016;2023-02-02T06:07:29;97278.31;;;3.59;nan
61769;BME280;47669;48.712;9.016;2023-02-02T06:09:55;97264.66;;;3.65;nan
61769;BME280;47669;48.712;9.016;2023-02-02T06:12:20;97271.16;;;3.61;nan
61769;BME280;47669;48.712;9.016;2023-02-02T06:14:45;97276.50;;;3.60;nan
61769;BME280;47669;48.712;9.016;2023-02-02T06:17:11;97268.03;;;3.58;nan
61769;BME280;47669;48.712;9.016;2023-02-02T06:19:36;97271.13;;;3.53;nan
61769;BME280;47669;48.712;9.016;2023-02-02T06:22:01;97270.31;;;3.52;nan
61769;BME280;47669;48.712;9.016;2023-02-02T06:24:26;97271.47;;;3.58;nan
61769;BME280;47669;48.712;9.016;2023-02-02T06:26:52;97276.00;;;3.56;nan
61769;BME280;47669;48.712;9.016;2023-02-02T06:29:17;97266.28;;;3.58;nan
61769;BME280;47669;48.712;9.016;2023-02-02T06:31:42;97273.75;;;3.61;nan
61769;BME280;47669;48.712;9.016;2023-02-02T06:34:09;97283.81;;;3.56;nan
61769;BME280;47669;48.712;9.016;2023-02-02T06:36:37;97276.69;;;3.58;nan
61769;BME280;47669;48.712;9.016;2023-02-02T06:39:02;97288.72;;;3.59;nan
61769;BME280;47669;48.712;9.016;2023-02-02T06:41:29;97291.31;;;3.59;nan
61769;BME280;47669;48.712;9.016;2023-02-02T06:43:55;97295.22;;;3.55;nan
61769;BME280;47669;48.712;9.016;2023-02-02T06:46:21;97287.41;;;3.55;nan
61769;BME280;47669;48.712;9.016;2023-02-02T06:48:46;97289.50;;;3.51;nan
61769;BME280;47669;48.712;9.016;2023-02-02T06:51:11;97299.28;;;3.58;nan
61769;BME280;47669;48.712;9.016;2023-02-02T06:53:37;97290.31;;;3.52;nan
61769;BME280;47669;48.712;9.016;2023-02-02T06:56:04;97296.34;;;3.52;nan
61769;BME280;47669;48.712;9.016;2023-02-02T06:58:31;97299.25;;;3.49;nan
61769;BME280;47669;48.712;9.016;2023-02-02T07:01:04;97304.66;;;3.56;nan
61769;BME280;47669;48.712;9.016;2023-02-02T07:03:30;97315.88;;;3.48;nan
61769;BME280;47669;48.712;9.016;2023-02-02T07:05:55;97316.31;;;3.44;nan
61769;BME280;47669;48.712;9.016;2023-02-02T07:08:21;97301.81;;;3.41;nan
61769;BME280;47669;48.712;9.016;2023-02-02T07:10:46;97313.84;;;3.42;nan
61769;BME280;47669;48.712;9.016;2023-02-02T07:13:11;97305.84;;;3.35;nan
61769;BME280;47669;48.712;9.016;2023-02-02T07:15:38;97306.38;;;3.39;nan
61769;BME280;47669;48.712;9.016;2023-02-02T07:18:03;97300.00;;;3.33;nan
61769;BME280;47669;48.712;9.016;2023-02-02T07:20:29;97302.97;;;3.39;nan
61769;BME280;47669;48.712;9.016;2023-02-02T07:22:54;97301.19;;;3.47;nan
61769;BME280;47669;48.712;9.016;2023-02-02T07:25:20;97300.69;;;3.44;nan
61769;BME280;47669;48.712;9.016;2023-02-02T07:27:45;97316.31;;;3.44;nan
61769;BME280;47669;48.712;9.016;2023-02-02T07:30:13;97321.84;;;3.41;nan
61769;BME280;47669;48.712;9.016;2023-02-02T07:32:39;97312.03;;;3.34;nan
61769;BME280;47669;48.712;9.016;2023-02-02T07:35:04;97315.34;;;3.45;nan
61769;BME280;47669;48.712;9.016;2023-02-02T07:37:30;97313.56;;;3.45;nan
61769;BME280;47669;48.712;9.016;2023-02-02T07:39:55;97320.56;;;3.45;nan
61769;BME280;47669;48.712;9.016;2023-02-02T07:42:21;97315.66;;;3.42;nan
61769;BME280;47669;48.712;9.016;2023-02-02T07:44:46;97327.06;;;3.41;nan
61769;BME280;47669;48.712;9.016;2023-02-02T07:47:11;97330.66;;;3.48;nan
61769;BME280;47669;48.712;9.016;2023-02-02T07:49:36;97322.53;;;3.51;nan
61769;BME280;47669;48.712;9.016;2023-02-02T07:52:02;97322.56;;;3.59;nan
61769;BME280;47669;48.712;9.016;2023-02-02T07:54:27;97320.34;;;3.64;nan
61769;BME280;47669;48.712;9.016;2023-02-02T07:56:52;97317.94;;;3.79;nan
61769;BME280;47669;48.712;9.016;2023-02-02T07:59:17;97318.25;;;3.76;nan
61769;BME280;47669;48.712;9.016;2023-02-02T08:01:43;97317.28;;;3.77;nan
61769;BME280;47669;48.712;9.016;2023-02-02T08:04:08;97306.56;;;3.88;nan
61769;BME280;47669;48.712;9.016;2023-02-02T08:06:38;97289.13;;;3.81;nan
61769;BME280;47669;48.712;9.016;2023-02-02T08:09:06;97289.34;;;3.95;nan
61769;BME280;47669;48.712;9.016;2023-02-02T08:11:32;97271.94;;;4.04;nan
61769;BME280;47669;48.712;9.016;2023-02-02T08:14:00;97271.25;;;3.94;nan
61769;BME280;47669;48.712;9.016;2023-02-02T08:16:27;97278.78;;;3.97;nan
61769;BME280;47669;48.712;9.016;2023-02-02T08:18:53;97277.16;;;4.04;nan
61769;BME280;47669;48.712;9.016;2023-02-02T08:21:19;97278.78;;;4.05;nan
61769;BME280;47669;48.712;9.016;2023-02-02T08:23:45;97274.06;;;4.09;nan
61769;BME280;47669;48.712;9.016;2023-02-02T08:26:13;97273.09;;;4.10;nan
61769;BME280;47669;48.712;9.016;2023-02-02T08:28:42;97275.88;;;4.17;nan
61769;BME280;47669;48.712;9.016;2023-02-02T08:31:25;97282.09;;;4.32;nan
61769;BME280;47669;48.712;9.016;2023-02-02T08:33:52;97285.81;;;4.13;nan
61769;BME280;47669;48.712;9.016;2023-02-02T08:36:23;97290.72;;;4.24;nan
61769;BME280;47669;48.712;9.016;2023-02-02T08:38:49;97301.78;;;4.18;nan
61769;BME280;47669;48.712;9.016;2023-02-02T08:41:18;97313.84;;;4.27;nan
61769;BME280;47669;48.712;9.016;2023-02-02T08:43:44;97322.66;;;4.26;nan
61769;BME280;47669;48.712;9.016;2023-02-02T08:46:11;97328.34;;;4.30;nan
61769;BME280;47669;48.712;9.016;2023-02-02T08:48:36;97326.38;;;4.24;nan
61769;BME280;47669;48.712;9.016;2023-02-02T08:51:03;97336.84;;;4.32;nan
61769;BME280;47669;48.712;9.016;2023-02-02T08:53:29;97348.75;;;4.26;nan
61769;BME280;47669;48.712;9.016;2023-02-02T08:55:58;97346.59;;;4.30;nan
61769;BME280;47669;48.712;9.016;2023-02-02T08:58:24;97353.81;;;4.36;nan
61769;BME280;47669;48.712;9.016;2023-02-02T09:00:49;97350.84;;;4.31;nan
61769;BME280;47669;48.712;9.016;2023-02-02T09:03:15;97361.78;;;4.34;nan
61769;BME280;47669;48.712;9.016;2023-02-02T09:05:40;97367.00;;;4.34;nan
61769;BME280;47669;48.712;9.016;2023-02-02T09:08:06;97383.44;;;4.35;nan
61769;BME280;47669;48.712;9.016;2023-02-02T09:10:34;97372.22;;;4.43;nan
61769;BME280;47669;48.712;9.016;2023-02-02T09:12:59;97382.66;;;4.34;nan
61769;BME280;47669;48.712;9.016;2023-02-02T09:15:24;97372.72;;;4.38;nan
61769;BME280;47669;48.712;9.016;2023-02-02T09:17:51;97370.91;;;4.39;nan
61769;BME280;47669;48.712;9.016;2023-02-02T09:20:16;97372.22;;;4.43;nan
61769;BME280;47669;48.712;9.016;2023-02-02T09:22:41;97363.25;;;4.45;nan
61769;BME280;47669;48.712;9.016;2023-02-02T09:25:07;97368.97;;;4.49;nan
61769;BME280;47669;48.712;9.016;2023-02-02T09:27:36;97378.16;;;4.61;nan
61769;BME280;47669;48.712;9.016;2023-02-02T09:30:02;97365.75;;;4.63;nan
61769;BME280;47669;48.712;9.016;2023-02-02T09:32:27;97361.81;;;4.59;nan
61769;BME280;47669;48.712;9.016;2023-02-02T09:34:52;97377.00;;;4.64;nan
61769;BME280;47669;48.712;9.016;2023-02-02T09:37:18;97370.94;;;4.55;nan
61769;BME280;47669;48.712;9.016;2023-02-02T09:39:43;97378.63;;;4.57;nan
61769;BME280;47669;48.712;9.016;2023-02-02T09:45:44;97379.78;;;4.62;nan
61769;BME280;47669;48.712;9.016;2023-02-02T09:50:55;97400.13;;;4.59;nan
61769;BME280;47669;48.712;9.016;2023-02-02T09:53:28;97407.47;;;4.55;nan
61769;BME280;47669;48.712;9.016;2023-02-02T09:55:59;97406.97;;;4.51;nan
61769;BME280;47669;48.712;9.016;2023-02-02T09:58:41;97404.03;;;4.54;nan
61769;BME280;47669;48.712;9.016;2023-02-02T10:01:13;97403.53;;;4.43;nan
61769;BME280;47669;48.712;9.016;2023-02-02T10:06:36;97412.66;;;4.55;nan
61769;BME280;47669;48.712;9.016;2023-02-02T10:09:22;97418.03;;;4.45;nan
61769;BME280;47669;48.712;9.016;2023-02-02T10:15:14;97404.19;;;4.45;nan
61769;BME280;47669;48.712;9.016;2023-02-02T10:18:02;97406.16;;;4.51;nan
61769;BME280;47669;48.712;9.016;2023-02-02T10:23:05;97398.03;;;4.62;nan
61769;BME280;47669;48.712;9.016;2023-02-02T10:25:34;97404.06;;;4.63;nan
61769;BME280;47669;48.712;9.016;2023-02-02T10:28:52;97402.09;;;4.57;nan
61769;BME280;47669;48.712;9.016;2023-02-02T10:30:59;97408.94;;;4.58;nan
61769;BME280;47669;48.712;9.016;2023-02-02T10:33:35;97411.69;;;4.48;nan
61769;BME280;47669;48.712;9.016;2023-02-02T10:46:37;97428.97;;;4.57;nan
61769;BME280;47669;48.712;9.016;2023-02-02T10:52:15;97435.97;;;4.48;nan
61769;BME280;47669;48.712;9.016;2023-02-02T11:00:26;97437.19;;;4.28;nan
61769;BME280;47669;48.712;9.016;2023-02-02T11:02:53;97433.94;;;4.26;nan
61769;BME280;47669;48.712;9.016;2023-02-02T11:05:24;97437.84;;;4.30;nan
61769;BME280;47669;48.712;9.016;2023-02-02T11:08:13;97437.72;;;4.40;nan
61769;BME280;47669;48.712;9.016;2023-02-02T11:10:40;97436.59;;;4.34;nan
61769;BME280;47669;48.712;9.016;2023-02-02T11:13:07;97438.03;;;4.28;nan
61769;BME280;47669;48.712;9.016;2023-02-02T11:15:36;97431.19;;;4.35;nan
61769;BME280;47669;48.712;9.016;2023-02-02T11:18:29;97438.22;;;4.35;nan
61769;BME280;47669;48.712;9.016;2023-02-02T11:20:56;97429.25;;;4.38;nan
61769;BME280;47669;48.712;9.016;2023-02-02T11:23:22;97428.78;;;4.34;nan
61769;BME280;47669;48.712;9.016;2023-02-02T11:26:00;97425.53;;;4.40;nan
61769;BME280;47669;48.712;9.016;2023-02-02T11:28:31;97433.19;;;4.42;nan
61769;BME280;47669;48.712;9.016;2023-02-02T11:30:58;97430.94;;;4.55;nan
61769;BME280;47669;48.712;9.016;2023-02-02T11:33:35;97426.03;;;4.52;nan
61769;BME280;47669;48.712;9.016;2023-02-02T11:36:06;97423.44;;;4.52;nan
61769;BME280;47669;48.712;9.016;2023-02-02T11:38:41;97425.91;;;4.62;nan
61769;BME280;47669;48.712;9.016;2023-02-02T11:41:07;97427.84;;;4.51;nan
61769;BME280;47669;48.712;9.016;2023-02-02T11:43:52;97424.09;;;4.46;nan
61769;BME280;47669;48.712;9.016;2023-02-02T11:46:21;97419.38;;;4.58;nan
61769;BME280;47669;48.712;9.016;2023-02-02T11:49:00;97430.31;;;4.61;nan
61769;BME280;47669;48.712;9.016;2023-02-02T11:51:27;97413.50;;;4.56;nan
61769;BME280;47669;48.712;9.016;2023-02-02T11:54:04;97422.94;;;4.57;nan
61769;BME280;47669;48.712;9.016;2023-02-02T11:56:34;97415.63;;;4.60;nan
61769;BME280;47669;48.712;9.016;2023-02-02T11:59:00;97417.59;;;4.66;nan
61769;BME280;47669;48.712;9.016;2023-02-02T12:03:55;97409.94;;;4.65;nan
61769;BME280;47669;48.712;9.016;2023-02-02T12:06:26;97415.34;;;4.71;nan
61769;BME280;47669;48.712;9.016;2023-02-02T12:09:00;97401.13;;;4.66;nan
61769;BME280;47669;48.712;9.016;2023-02-02T12:11:43;97405.41;;;4.75;nan
61769;BME280;47669;48.712;9.016;2023-02-02T12:14:53;97401.66;;;4.78;nan
61769;BME280;47669;48.712;9.016;2023-02-02T12:17:41;97391.50;;;4.74;nan
61769;BME280;47669;48.712;9.016;2023-02-02T12:28:04;97402.94;;;4.73;nan
61769;BME280;47669;48.712;9.016;2023-02-02T12:33:33;97410.41;;;4.60;nan
61769;BME280;47669;48.712;9.016;2023-02-02T12:41:50;97415.91;;;4.49;nan
61769;BME280;47669;48.712;9.016;2023-02-02T12:44:40;97406.81;;;4.53;nan
61769;BME280;47669;48.712;9.016;2023-02-02T12:47:27;97406.28;;;4.49;nan
61769;BME280;47669;48.712;9.016;2023-02-02T12:50:14;97402.22;;;4.47;nan
61769;BME280;47669;48.712;9.016;2023-02-02T13:00:44;97413.94;;;4.43;nan
61769;BME280;47669;48.712;9.016;2023-02-02T13:04:24;97412.84;;;4.53;nan
61769;BME280;47669;48.712;9.016;2023-02-02T13:09:12;97422.25;;;4.38;nan
61769;BME280;47669;48.712;9.016;2023-02-02T13:12:11;97423.56;;;4.34;nan
61769;BME280;47669;48.712;9.016;2023-02-02T13:14:49;97426.28;;;4.24;nan
61769;BME280;47669;48.712;9.016;2023-02-02T13:17:33;97435.28;;;4.38;nan
61769;BME280;47669;48.712;9.016;2023-02-02T13:20:13;97435.22;;;4.22;nan
61769;BME280;47669;48.712;9.016;2023-02-02T13:22:41;97429.69;;;4.25;nan
61769;BME280;47669;48.712;9.016;2023-02-02T13:25:16;97428.53;;;4.19;nan
61769;BME280;47669;48.712;9.016;2023-02-02T13:27:44;97434.56;;;4.20;nan
61769;BME280;47669;48.712;9.016;2023-02-02T13:30:24;97432.94;;;4.19;nan
61769;BME280;47669;48.712;9.016;2023-02-02T13:32:52;97440.09;;;4.17;nan
61769;BME280;47669;48.712;9.016;2023-02-02T13:35:24;97448.22;;;4.13;nan
61769;BME280;47669;48.712;9.016;2023-02-02T13:38:06;97448.06;;;4.15;nan
61769;BME280;47669;48.712;9.016;2023-02-02T13:40:41;97446.47;;;4.22;nan
61769;BME280;47669;48.712;9.016;2023-02-02T13:43:19;97433.00;;;4.35;nan
61769;BME280;47669;48.712;9.016;2023-02-02T13:57:10;97455.81;;;4.41;nan
61769;BME280;47669;48.712;9.016;2023-02-02T14:00:03;97449.78;;;4.32;nan
61769;BME280;47669;48.712;9.016;2023-02-02T14:02:46;97459.22;;;4.33;nan
61769;BME280;47669;48.712;9.016;2023-02-02T14:05:28;97457.13;;;4.37;nan
61769;BME280;47669;48.712;9.016;2023-02-02T14:08:07;97459.41;;;4.40;nan
61769;BME280;47669;48.712;9.016;2023-02-02T14:10:55;97447.03;;;4.42;nan
61769;BME280;47669;48.712;9.016;2023-02-02T14:13:45;97456.19;;;4.46;nan
61769;BME280;47669;48.712;9.016;2023-02-02T14:18:56;97463.34;;;4.44;nan
61769;BME280;47669;48.712;9.016;2023-02-02T14:23:59;97466.28;;;4.49;nan
61769;BME280;47669;48.712;9.016;2023-02-02T14:31:55;97466.34;;;4.58;nan
61769;BME280;47669;48.712;9.016;2023-02-02T14:39:29;97470.09;;;4.63;nan
61769;BME280;47669;48.712;9.016;2023-02-02T14:42:12;97468.63;;;4.69;nan
61769;BME280;47669;48.712;9.016;2023-02-02T14:55:51;97485.41;;;4.66;nan
61769;BME280;47669;48.712;9.016;2023-02-02T14:58:35;97477.28;;;4.61;nan
61769;BME280;47669;48.712;9.016;2023-02-02T15:03:53;97480.72;;;4.70;nan
61769;BME280;47669;48.712;9.016;2023-02-02T15:06:35;97478.59;;;4.73;nan
61769;BME280;47669;48.712;9.016;2023-02-02T15:15:02;97482.00;;;4.66;nan
61769;BME280;47669;48.712;9.016;2023-02-02T15:17:45;97484.09;;;4.62;nan
61769;BME280;47669;48.712;9.016;2023-02-02T15:20:25;97485.41;;;4.66;nan
61769;BME280;47669;48.712;9.016;2023-02-02T15:25:29;97483.97;;;4.64;nan
61769;BME280;47669;48.712;9.016;2023-02-02T15:28:00;97477.94;;;4.63;nan
61769;BME280;47669;48.712;9.016;2023-02-02T15:30:27;97473.81;;;4.61;nan
61769;BME280;47669;48.712;9.016;2023-02-02T15:32:55;97493.22;;;4.58;nan
61769;BME280;47669;48.712;9.016;2023-02-02T15:35:27;97492.72;;;4.54;nan
61769;BME280;47669;48.712;9.016;2023-02-02T15:37:58;97490.09;;;4.54;nan
61769;BME280;47669;48.712;9.016;2023-02-02T15:40:26;97503.00;;;4.56;nan
61769;BME280;47669;48.712;9.016;2023-02-02T15:42:58;97502.19;;;4.56;nan
61769;BME280;47669;48.712;9.016;2023-02-02T15:47:56;97511.13;;;4.53;nan
61769;BME280;47669;48.712;9.016;2023-02-02T15:50:22;97510.94;;;4.46;nan
61769;BME280;47669;48.712;9.016;2023-02-02T15:52:49;97514.22;;;4.48;nan
61769;BME280;47669;48.712;9.016;2023-02-02T15:55:30;97513.22;;;4.49;nan
61769;BME280;47669;48.712;9.016;2023-02-02T15:57:56;97516.53;;;4.51;nan